createdAt,value
2023-07-25T00:00:23.108Z,5.70
2023-07-25T00:03:27.233Z,5.70
2023-07-25T00:06:16.865Z,5.80
2023-07-25T00:09:06.440Z,5.20
2023-07-25T00:11:55.953Z,5.30
2023-07-25T00:14:43.625Z,6.20
2023-07-25T00:17:31.070Z,5.00
2023-07-25T00:20:25.223Z,5.50
2023-07-25T00:23:16.354Z,5.40
2023-07-25T00:26:04.759Z,4.90
2023-07-25T00:28:53.850Z,4.70
2023-07-25T00:31:49.591Z,5.90
2023-07-25T00:34:44.027Z,5.90
2023-07-25T00:37:46.385Z,6.40
2023-07-25T00:40:48.505Z,6.20
2023-07-25T00:44:02.125Z,5.90
2023-07-25T00:47:09.765Z,5.50
2023-07-25T00:50:00.595Z,4.80
2023-07-25T00:52:49.544Z,6.40
2023-07-25T00:55:37.551Z,6.20
2023-07-25T00:59:07.339Z,5.70
2023-07-25T01:02:17.334Z,6.40
2023-07-25T01:05:32.603Z,4.70
2023-07-25T01:08:54.946Z,5.20
2023-07-25T01:12:39.800Z,5.40
2023-07-25T01:15:47.081Z,5.20
2023-07-25T01:19:23.269Z,5.60
2023-07-25T01:23:01.689Z,7.10
2023-07-25T01:26:22.800Z,6.10
2023-07-25T01:29:52.908Z,6.90
2023-07-25T01:33:51.806Z,5.90
2023-07-25T01:37:24.897Z,6.00
2023-07-25T01:41:19.824Z,6.30
2023-07-25T01:44:56.684Z,5.20
2023-07-25T01:48:37.887Z,6.30
2023-07-25T01:52:34.142Z,5.70
2023-07-25T01:56:06.926Z,5.60
2023-07-25T01:59:33.826Z,6.00
2023-07-25T02:02:54.857Z,5.60
2023-07-25T02:06:37.648Z,5.30
2023-07-25T02:10:06.793Z,7.00
2023-07-25T02:14:13.861Z,6.50
2023-07-25T02:17:25.614Z,7.10
2023-07-25T02:20:43.190Z,6.10
2023-07-25T02:24:35.225Z,7.10
2023-07-25T02:28:31.761Z,6.60
2023-07-25T02:32:34.992Z,5.80
2023-07-25T02:36:43.013Z,5.20
2023-07-25T02:40:26.320Z,6.40
2023-07-25T02:43:18.844Z,6.80
2023-07-25T02:46:52.569Z,7.10
2023-07-25T02:50:59.575Z,7.10
2023-07-25T02:58:18.774Z,7.30
2023-07-25T03:01:44.949Z,7.20
2023-07-25T03:05:14.609Z,6.90
2023-07-25T03:08:52.376Z,7.00
2023-07-25T03:12:25.042Z,5.80
2023-07-25T03:15:36.398Z,7.30
2023-07-25T03:18:49.802Z,7.00
2023-07-25T03:21:52.759Z,7.00
2023-07-25T03:25:01.804Z,5.60
2023-07-25T03:28:13.864Z,6.40
2023-07-25T03:32:10.786Z,6.30
2023-07-25T03:35:24.330Z,6.00
2023-07-25T03:38:28.167Z,6.40
2023-07-25T03:41:52.314Z,6.90
2023-07-25T03:45:36.603Z,7.60
2023-07-25T03:52:18.103Z,5.70
2023-07-25T03:55:46.394Z,6.40
2023-07-25T03:59:29.959Z,6.90
2023-07-25T04:03:14.503Z,7.30
2023-07-25T04:07:34.335Z,7.50
2023-07-25T04:16:03.070Z,7.50
2023-07-25T04:53:42.550Z,8.60
2023-07-25T05:00:32.166Z,9.30
2023-07-25T05:03:34.055Z,8.40
2023-07-25T05:06:32.777Z,7.30
2023-07-25T05:09:27.655Z,9.00
2023-07-25T05:12:31.079Z,8.00
2023-07-25T05:15:31.269Z,8.50
2023-07-25T05:18:19.857Z,7.90
2023-07-25T05:21:08.525Z,9.80
2023-07-25T05:23:55.559Z,9.30
2023-07-25T05:26:43.261Z,9.20
2023-07-25T05:29:33.174Z,9.00
2023-07-25T05:32:22.569Z,10.10
2023-07-25T05:35:09.508Z,10.20
2023-07-25T05:37:57.102Z,9.90
2023-07-25T05:40:44.770Z,8.90
2023-07-25T05:43:32.690Z,8.20
2023-07-25T05:46:20.293Z,9.50
2023-07-25T05:49:08.522Z,9.40
2023-07-25T05:51:55.917Z,9.70
2023-07-25T05:54:43.029Z,9.50
2023-07-25T05:57:31.661Z,9.50
2023-07-25T06:00:22.038Z,8.60
2023-07-25T06:05:58.392Z,8.70
2023-07-25T06:08:46.781Z,7.20
2023-07-25T06:11:34.773Z,7.30
2023-07-25T06:14:24.993Z,7.60
2023-07-25T06:17:15.979Z,8.40
2023-07-25T06:20:04.884Z,7.60
2023-07-25T06:22:55.226Z,7.70
2023-07-25T06:25:46.942Z,6.30
2023-07-25T06:32:27.608Z,6.20
2023-07-25T06:35:44.630Z,7.00
2023-07-25T06:43:15.202Z,6.80
2023-07-25T06:52:48.317Z,6.50
2023-07-25T06:55:58.709Z,5.80
2023-07-25T06:59:01.720Z,6.90
2023-07-25T07:02:02.134Z,5.70
2023-07-25T07:05:27.756Z,5.60
2023-07-25T07:08:41.632Z,5.70
2023-07-25T07:11:58.806Z,5.40
2023-07-25T07:14:45.539Z,4.80
2023-07-25T07:17:33.318Z,5.80
2023-07-25T07:20:20.441Z,5.60
2023-07-25T07:23:07.630Z,5.30
2023-07-25T07:25:55.338Z,5.00
2023-07-25T07:28:43.273Z,5.00
2023-07-25T07:31:31.098Z,5.20
2023-07-25T07:34:19.517Z,4.60
2023-07-25T07:37:06.220Z,5.40
2023-07-25T07:39:53.719Z,6.00
2023-07-25T07:42:41.087Z,5.50
2023-07-25T07:45:31.107Z,5.60
2023-07-25T07:48:18.442Z,5.90
2023-07-25T07:51:06.516Z,5.70
2023-07-25T07:53:53.954Z,5.10
2023-07-25T07:56:41.236Z,5.70
2023-07-25T07:59:28.222Z,5.70
2023-07-25T08:02:15.510Z,5.30
2023-07-25T08:05:04.444Z,5.30
2023-07-25T08:07:53.176Z,5.20
2023-07-25T08:10:40.932Z,5.90
2023-07-25T08:13:28.842Z,5.00
2023-07-25T08:16:16.257Z,4.70
2023-07-25T08:19:05.098Z,5.40
2023-07-25T08:21:56.668Z,5.70
2023-07-25T08:24:45.046Z,5.00
2023-07-25T08:27:36.698Z,4.70
2023-07-25T08:30:31.172Z,4.70
2023-07-25T08:33:25.437Z,4.60
2023-07-25T08:36:14.845Z,4.90
2023-07-25T08:39:06.720Z,6.00
2023-07-25T08:42:09.461Z,4.80
2023-07-25T08:45:17.563Z,4.20
2023-07-25T08:49:11.774Z,4.60
2023-07-25T08:53:13.442Z,4.20
2023-07-25T08:56:43.363Z,4.10
2023-07-25T09:01:28.191Z,5.40
2023-07-25T09:04:40.247Z,5.80
2023-07-25T09:07:59.593Z,4.80
2023-07-25T09:11:16.688Z,5.00
2023-07-25T09:14:35.679Z,5.00
2023-07-25T09:18:35.811Z,3.70
2023-07-25T09:22:03.589Z,4.60
2023-07-25T09:25:24.941Z,4.60
2023-07-25T09:29:02.583Z,5.30
2023-07-25T09:33:04.916Z,5.20
2023-07-25T09:36:39.599Z,4.40
2023-07-25T09:40:35.626Z,5.00
2023-07-25T09:44:48.585Z,3.60
2023-07-25T09:48:29.043Z,4.60
2023-07-25T09:52:01.579Z,4.30
2023-07-25T09:55:54.754Z,4.30
2023-07-25T09:59:36.285Z,4.60
2023-07-25T10:02:58.493Z,4.40
2023-07-25T10:06:41.221Z,4.20
2023-07-25T10:10:36.747Z,4.40
2023-07-25T10:14:16.567Z,5.00
2023-07-25T10:18:22.774Z,4.60
2023-07-25T10:22:25.580Z,5.40
2023-07-25T10:26:21.746Z,6.30
2023-07-25T10:30:14.602Z,4.10
2023-07-25T10:34:03.881Z,5.00
2023-07-25T10:37:49.406Z,3.20
2023-07-25T10:41:24.478Z,4.50
2023-07-25T10:44:43.996Z,4.20
2023-07-25T10:48:21.776Z,4.00
2023-07-25T10:52:09.966Z,4.50
2023-07-25T10:55:37.712Z,3.70
2023-07-25T10:59:23.558Z,4.20
2023-07-25T11:03:04.786Z,4.70
2023-07-25T11:05:52.979Z,4.40
2023-07-25T11:08:45.186Z,5.00
2023-07-25T11:12:16.606Z,4.20
2023-07-25T11:15:47.055Z,4.50
2023-07-25T11:19:01.179Z,4.60
2023-07-25T11:22:21.190Z,4.10
2023-07-25T11:25:29.991Z,4.00
2023-07-25T11:29:03.074Z,4.60
2023-07-25T11:32:16.742Z,4.70
2023-07-25T11:35:28.118Z,4.10
2023-07-25T11:38:36.120Z,4.80
2023-07-25T11:42:15.757Z,4.40
2023-07-25T11:45:57.675Z,5.30
2023-07-25T11:49:11.743Z,4.10
2023-07-25T11:52:21.897Z,4.70
2023-07-25T11:55:12.530Z,4.90
2023-07-25T11:58:11.308Z,5.20
2023-07-25T12:01:42.798Z,4.10
2023-07-25T12:05:16.629Z,4.70
2023-07-25T12:08:48.638Z,4.70
2023-07-25T12:12:21.579Z,5.20
2023-07-25T12:16:30.850Z,4.60
2023-07-25T12:20:11.576Z,4.40
2023-07-25T12:23:41.701Z,4.60
2023-07-25T12:27:23.631Z,4.50
2023-07-25T12:31:09.749Z,5.20
2023-07-25T12:35:00.572Z,5.20
2023-07-25T12:39:09.715Z,5.60
2023-07-25T12:43:17.591Z,4.00
2023-07-25T12:47:07.873Z,4.10
2023-07-25T12:50:51.608Z,4.20
2023-07-25T12:54:47.841Z,3.70
2023-07-25T12:58:37.650Z,4.20
2023-07-25T13:02:35.958Z,3.70
2023-07-25T13:06:40.588Z,4.50
2023-07-25T13:10:17.757Z,3.90
2023-07-25T13:13:55.586Z,5.00
2023-07-25T13:17:52.798Z,4.30
2023-07-25T13:21:48.581Z,4.20
2023-07-25T13:25:11.683Z,4.40
2023-07-25T13:29:08.565Z,3.70
2023-07-25T13:33:05.232Z,4.30
2023-07-25T13:36:32.569Z,3.30
2023-07-25T13:40:13.933Z,4.60
2023-07-25T13:43:21.332Z,3.30
2023-07-25T13:46:28.423Z,3.70
2023-07-25T13:50:02.022Z,4.10
2023-07-25T13:53:07.583Z,3.70
2023-07-25T13:55:56.105Z,3.20
2023-07-25T13:59:27.046Z,3.40
2023-07-25T14:03:01.612Z,3.60
2023-07-25T14:06:44.167Z,3.10
2023-07-25T14:11:01.609Z,3.10
2023-07-25T14:15:05.675Z,2.60
2023-07-25T14:18:49.128Z,3.00
2023-07-25T14:22:40.730Z,3.80
2023-07-25T14:26:23.574Z,3.30
2023-07-25T14:30:18.756Z,3.60
2023-07-25T14:34:12.578Z,3.30
2023-07-25T14:38:09.381Z,4.40
2023-07-25T14:42:14.561Z,3.60
2023-07-25T14:45:34.605Z,4.00
2023-07-25T14:49:15.298Z,4.10
2023-07-25T14:52:12.628Z,4.00
2023-07-25T14:55:00.152Z,4.80
2023-07-25T14:57:47.796Z,4.00
2023-07-25T15:00:36.121Z,4.40
2023-07-25T15:03:23.450Z,4.30
2023-07-25T15:06:10.519Z,5.00
2023-07-25T15:08:57.900Z,4.00
2023-07-25T15:11:44.879Z,4.70
2023-07-25T15:14:32.383Z,5.00
2023-07-25T15:17:20.639Z,3.80
2023-07-25T15:20:12.200Z,4.00
2023-07-25T15:23:00.587Z,4.30
2023-07-25T15:25:49.331Z,4.20
2023-07-25T15:28:43.936Z,3.90
2023-07-25T15:31:32.610Z,3.80
2023-07-25T15:37:15.629Z,3.70
2023-07-25T15:40:31.836Z,3.90
2023-07-25T15:43:21.584Z,3.60
2023-07-25T15:46:28.312Z,3.70
2023-07-25T15:49:19.486Z,3.80
2023-07-25T15:52:27.210Z,3.00
2023-07-25T15:55:15.898Z,2.80
2023-07-25T15:58:53.876Z,3.10
2023-07-25T16:01:48.633Z,2.70
2023-07-25T16:04:57.586Z,3.10
2023-07-25T16:08:42.734Z,2.80
2023-07-25T16:12:06.085Z,2.80
2023-07-25T16:14:58.469Z,3.40
2023-07-25T16:18:25.814Z,3.30
2023-07-25T16:22:13.752Z,2.50
2023-07-25T16:25:59.261Z,3.00
2023-07-25T16:29:01.845Z,3.20
2023-07-25T16:31:57.561Z,2.90
2023-07-25T16:35:02.209Z,3.50
2023-07-25T16:37:50.883Z,3.00
2023-07-25T16:40:38.796Z,2.50
2023-07-25T16:43:27.583Z,3.90
2023-07-25T16:46:15.391Z,2.80
2023-07-25T16:49:02.239Z,3.30
2023-07-25T16:51:49.856Z,3.20
2023-07-25T16:54:37.384Z,3.00
2023-07-25T16:57:25.834Z,3.10
2023-07-25T17:00:15.844Z,3.10
2023-07-25T17:03:08.279Z,3.40
2023-07-25T17:05:56.575Z,3.60
2023-07-25T17:12:17.595Z,3.90
2023-07-25T17:15:28.287Z,3.30
2023-07-25T17:18:31.164Z,3.60
2023-07-25T17:21:39.936Z,3.20
2023-07-25T17:24:44.513Z,3.60
2023-07-25T17:27:39.787Z,3.50
2023-07-25T17:31:23.048Z,4.10
2023-07-25T17:34:35.873Z,4.30
2023-07-25T17:37:41.418Z,3.80
2023-07-25T17:40:34.866Z,3.70
2023-07-25T17:43:22.877Z,4.30
2023-07-25T17:46:14.140Z,3.80
2023-07-25T17:49:04.385Z,4.40
2023-07-25T17:51:53.183Z,5.10
2023-07-25T17:54:47.219Z,4.30
2023-07-25T17:57:36.969Z,4.40
2023-07-25T18:00:27.618Z,3.40
2023-07-25T18:03:17.227Z,3.50
2023-07-25T18:06:05.849Z,3.40
2023-07-25T18:08:53.662Z,4.20
2023-07-25T18:11:42.471Z,6.80
2023-07-25T18:14:29.941Z,6.20
2023-07-25T18:17:19.797Z,6.90
2023-07-25T18:20:10.327Z,4.20
2023-07-25T18:23:14.695Z,4.70
2023-07-25T18:26:03.197Z,3.40
2023-07-25T18:28:51.978Z,3.30
2023-07-25T18:31:39.931Z,3.70
2023-07-25T18:34:27.717Z,4.40
2023-07-25T18:37:19.100Z,3.90
2023-07-25T18:40:08.372Z,3.90
2023-07-25T18:42:57.346Z,4.30
2023-07-25T18:45:47.529Z,3.30
2023-07-25T18:48:50.263Z,3.30
2023-07-25T18:51:51.580Z,3.70
2023-07-25T18:54:45.963Z,3.40
2023-07-25T18:57:45.954Z,3.50
2023-07-25T19:00:34.229Z,3.80
2023-07-25T19:03:41.801Z,3.20
2023-07-25T19:06:34.382Z,3.80
2023-07-25T19:09:24.288Z,3.00
2023-07-25T19:12:25.494Z,3.10
2023-07-25T19:15:18.143Z,3.90
2023-07-25T19:18:11.980Z,2.90
2023-07-25T19:21:23.794Z,3.50
2023-07-25T19:24:19.304Z,3.20
2023-07-25T19:27:11.127Z,3.10
2023-07-25T19:30:01.377Z,3.30
2023-07-25T19:32:51.988Z,3.90
2023-07-25T19:35:40.268Z,3.90
2023-07-25T19:38:29.764Z,3.20
2023-07-25T19:41:17.876Z,3.50
2023-07-25T19:44:08.889Z,3.60
2023-07-25T19:46:56.086Z,3.30
2023-07-25T19:49:46.048Z,3.40
2023-07-25T19:52:38.733Z,3.90
2023-07-25T19:55:52.602Z,3.40
2023-07-25T19:58:43.743Z,3.60
2023-07-25T20:01:32.468Z,3.40
2023-07-25T20:04:24.026Z,3.40
2023-07-25T20:07:13.367Z,3.30
2023-07-25T20:10:02.599Z,4.50
2023-07-25T20:12:51.784Z,3.60
2023-07-25T20:15:40.652Z,3.70
2023-07-25T20:18:32.219Z,3.00
2023-07-25T20:21:19.628Z,3.20
2023-07-25T20:24:16.060Z,4.10
2023-07-25T20:27:03.940Z,4.40
2023-07-25T20:29:51.781Z,3.40
2023-07-25T20:32:40.187Z,3.40
2023-07-25T20:35:37.176Z,4.50
2023-07-25T20:38:25.843Z,4.10
2023-07-25T20:41:18.471Z,3.60
2023-07-25T20:44:10.044Z,3.80
2023-07-25T20:46:57.351Z,4.30
2023-07-25T20:49:48.325Z,3.90
2023-07-25T20:52:36.206Z,3.60
2023-07-25T20:55:24.863Z,3.50
2023-07-25T20:58:13.011Z,3.90
2023-07-25T21:01:00.545Z,3.90
2023-07-25T21:03:48.945Z,3.90
2023-07-25T21:06:37.582Z,4.30
2023-07-25T21:09:25.831Z,3.60
2023-07-25T21:12:13.659Z,4.50
2023-07-25T21:15:02.023Z,3.50
2023-07-25T21:17:58.861Z,4.00
2023-07-25T21:20:55.741Z,3.80
2023-07-25T21:23:42.547Z,4.40
2023-07-25T21:26:31.113Z,4.90
2023-07-25T21:29:18.513Z,3.50
2023-07-25T21:32:08.063Z,3.90
2023-07-25T21:34:55.238Z,4.10
2023-07-25T21:37:43.314Z,3.90
2023-07-25T21:40:30.666Z,4.20
2023-07-25T21:43:19.597Z,3.30
2023-07-25T21:46:07.265Z,4.20
2023-07-25T21:48:55.748Z,4.80
2023-07-25T21:51:42.714Z,4.10
2023-07-25T21:54:30.331Z,4.90
2023-07-25T21:57:18.184Z,4.50
2023-07-25T22:00:08.260Z,4.00
2023-07-25T22:03:02.754Z,4.70
2023-07-25T22:05:50.930Z,5.50
2023-07-25T22:08:38.470Z,5.50
2023-07-25T22:11:25.955Z,5.50
2023-07-25T22:14:13.612Z,5.60
2023-07-25T22:17:02.146Z,5.30
2023-07-25T22:19:51.991Z,5.80
2023-07-25T22:22:39.920Z,5.90
2023-07-25T22:25:27.085Z,6.10
2023-07-25T22:28:14.530Z,6.50
2023-07-25T22:31:05.188Z,5.20
2023-07-25T22:33:52.753Z,6.40
2023-07-25T22:36:40.276Z,5.50
2023-07-25T22:39:27.541Z,5.40
2023-07-25T22:42:15.444Z,4.80
2023-07-25T22:45:02.908Z,4.90
2023-07-25T22:47:50.588Z,5.40
2023-07-25T22:50:39.200Z,5.60
2023-07-25T22:53:27.581Z,5.10
2023-07-25T22:56:14.729Z,6.10
2023-07-25T22:59:05.128Z,4.50
2023-07-25T23:01:52.656Z,5.80
2023-07-25T23:04:40.664Z,5.60
2023-07-25T23:07:27.976Z,6.10
2023-07-25T23:10:16.639Z,7.40
2023-07-25T23:13:04.727Z,8.40
2023-07-25T23:15:52.529Z,7.90
2023-07-25T23:18:39.919Z,8.60
2023-07-25T23:21:28.160Z,8.80
2023-07-25T23:24:16.069Z,9.20
2023-07-25T23:27:04.305Z,7.50
2023-07-25T23:29:51.798Z,8.00
2023-07-25T23:32:41.301Z,7.60
2023-07-25T23:35:29.813Z,8.10
2023-07-25T23:38:18.293Z,10.20
2023-07-25T23:41:08.729Z,9.30
2023-07-25T23:43:56.615Z,7.90
2023-07-25T23:46:45.152Z,7.80
2023-07-25T23:49:33.777Z,6.30
2023-07-25T23:52:21.770Z,7.10
2023-07-25T23:55:12.030Z,7.60
2023-07-25T23:58:04.125Z,6.80
